createdAt,value
2023-03-05T00:01:30.581Z,3.10
2023-03-05T00:03:59.168Z,3.10
2023-03-05T00:06:29.134Z,3.10
2023-03-05T00:08:59.486Z,3.10
2023-03-05T00:11:30.157Z,3.10
2023-03-05T00:13:59.846Z,3.00
2023-03-05T00:16:29.288Z,2.90
2023-03-05T00:18:59.182Z,2.90
2023-03-05T00:21:28.837Z,2.90
2023-03-05T00:24:01.075Z,2.90
2023-03-05T00:26:30.085Z,3.00
2023-03-05T00:28:59.264Z,3.00
2023-03-05T00:31:30.445Z,3.10
2023-03-05T00:34:00.960Z,3.10
2023-03-05T00:36:29.729Z,3.10
2023-03-05T00:38:59.648Z,3.10
2023-03-05T00:41:28.325Z,3.10
2023-03-05T00:43:56.658Z,3.20
2023-03-05T00:46:27.427Z,3.20
2023-03-05T00:48:55.961Z,3.10
2023-03-05T00:51:24.896Z,3.20
2023-03-05T00:53:53.270Z,3.20
2023-03-05T00:56:23.234Z,3.20
2023-03-05T00:58:51.453Z,3.20
2023-03-05T01:01:19.761Z,3.30
2023-03-05T01:03:47.957Z,3.20
2023-03-05T01:06:17.142Z,3.30
2023-03-05T01:08:45.677Z,3.30
2023-03-05T01:11:14.474Z,3.30
2023-03-05T01:13:44.128Z,3.30
2023-03-05T01:16:12.404Z,3.30
2023-03-05T01:18:41.658Z,3.30
2023-03-05T01:21:10.367Z,3.40
2023-03-05T01:23:38.604Z,3.30
2023-03-05T01:26:08.635Z,3.30
2023-03-05T01:28:38.310Z,3.30
2023-03-05T01:31:10.881Z,3.30
2023-03-05T01:33:39.104Z,3.30
2023-03-05T01:36:13.501Z,3.30
2023-03-05T01:38:41.996Z,3.30
2023-03-05T01:41:10.979Z,3.30
2023-03-05T01:43:39.906Z,3.20
2023-03-05T01:46:34.835Z,3.30
2023-03-05T01:49:17.809Z,3.30
2023-03-05T01:51:52.664Z,3.20
2023-03-05T01:54:23.856Z,3.20
2023-03-05T01:56:54.830Z,3.20
2023-03-05T01:59:25.084Z,3.20
2023-03-05T02:01:57.768Z,3.10
2023-03-05T02:04:35.771Z,3.20
2023-03-05T02:07:04.445Z,3.20
2023-03-05T02:09:32.645Z,3.20
2023-03-05T02:12:01.117Z,3.30
2023-03-05T02:14:29.621Z,3.20
2023-03-05T02:16:59.192Z,3.20
2023-03-05T02:19:27.473Z,3.30
2023-03-05T02:21:57.059Z,3.30
2023-03-05T02:24:37.079Z,3.30
2023-03-05T02:27:06.975Z,3.30
2023-03-05T02:29:38.774Z,3.30
2023-03-05T02:32:07.471Z,3.30
2023-03-05T02:34:35.687Z,3.40
2023-03-05T02:37:09.226Z,3.40
2023-03-05T02:39:37.864Z,3.40
2023-03-05T02:42:06.580Z,3.40
2023-03-05T02:44:34.913Z,3.40
2023-03-05T02:47:03.174Z,3.40
2023-03-05T02:49:31.513Z,3.40
2023-03-05T02:51:59.722Z,3.40
2023-03-05T02:54:29.309Z,3.30
2023-03-05T02:56:57.575Z,3.40
2023-03-05T02:59:25.792Z,3.40
2023-03-05T03:01:54.010Z,3.40
2023-03-05T03:04:22.233Z,3.40
2023-03-05T03:06:50.431Z,3.40
2023-03-05T03:09:18.639Z,3.40
2023-03-05T03:11:48.222Z,3.40
2023-03-05T03:14:16.474Z,3.50
2023-03-05T03:16:44.843Z,3.40
2023-03-05T03:19:13.285Z,3.40
2023-03-05T03:21:41.525Z,3.40
2023-03-05T03:24:09.864Z,3.40
2023-03-05T03:26:38.081Z,3.40
2023-03-05T03:29:07.682Z,3.30
2023-03-05T03:31:36.079Z,3.30
2023-03-05T03:34:04.286Z,3.20
2023-03-05T03:36:32.615Z,3.30
2023-03-05T03:39:00.862Z,3.30
2023-03-05T03:41:29.068Z,3.30
2023-03-05T03:43:57.281Z,3.40
2023-03-05T03:46:26.900Z,3.30
2023-03-05T03:48:55.099Z,3.30
2023-03-05T03:51:23.502Z,3.30
2023-03-05T03:53:51.713Z,3.30
2023-03-05T03:56:19.943Z,3.30
2023-03-05T03:58:50.605Z,3.30
2023-03-05T04:01:19.085Z,3.20
2023-03-05T04:03:48.746Z,3.20
2023-03-05T04:06:16.957Z,3.20
2023-03-05T04:08:45.128Z,3.10
2023-03-05T04:11:13.421Z,3.10
2023-03-05T04:13:41.587Z,3.10
2023-03-05T04:16:09.930Z,3.20
2023-03-05T04:18:38.260Z,3.10
2023-03-05T04:21:08.001Z,3.00
2023-03-05T04:23:36.551Z,3.00
2023-03-05T04:26:05.246Z,2.90
2023-03-05T04:28:33.679Z,2.90
2023-03-05T04:31:01.930Z,2.90
2023-03-05T04:33:30.164Z,2.90
2023-03-05T04:35:58.437Z,2.90
2023-03-05T04:38:28.146Z,2.90
2023-03-05T04:40:56.379Z,2.90
2023-03-05T04:43:24.672Z,3.00
2023-03-05T04:45:52.883Z,2.90
2023-03-05T04:48:21.069Z,2.90
2023-03-05T04:50:49.285Z,2.90
2023-03-05T04:53:17.500Z,2.90
2023-03-05T04:55:47.120Z,2.90
2023-03-05T04:58:15.306Z,2.90
2023-03-05T05:00:43.493Z,2.90
2023-03-05T05:03:11.844Z,3.00
2023-03-05T05:05:40.168Z,2.90
2023-03-05T05:08:08.396Z,3.00
2023-03-05T05:10:38.680Z,3.00
2023-03-05T05:13:08.372Z,3.00
2023-03-05T05:15:36.580Z,3.00
2023-03-05T05:18:04.946Z,3.00
2023-03-05T05:20:33.265Z,3.00
2023-03-05T05:23:01.439Z,3.00
2023-03-05T05:25:29.736Z,3.10
2023-03-05T05:27:57.915Z,3.10
2023-03-05T05:30:27.650Z,2.90
2023-03-05T05:32:55.869Z,2.90
2023-03-05T05:35:24.111Z,2.80
2023-03-05T05:37:52.329Z,2.80
2023-03-05T05:40:20.652Z,2.80
2023-03-05T05:42:48.842Z,2.80
2023-03-05T05:45:17.128Z,2.90
2023-03-05T05:47:46.804Z,2.90
2023-03-05T05:50:15.062Z,2.90
2023-03-05T05:52:43.258Z,2.90
2023-03-05T05:55:12.325Z,2.90
2023-03-05T05:57:41.047Z,2.90
2023-03-05T06:00:12.612Z,2.80
2023-03-05T06:02:41.280Z,2.90
2023-03-05T06:05:14.776Z,2.90
2023-03-05T06:07:43.148Z,2.70
2023-03-05T06:10:12.470Z,2.70
2023-03-05T06:12:40.960Z,2.80
2023-03-05T06:15:10.129Z,2.80
2023-03-05T06:17:38.274Z,2.80
2023-03-05T06:20:07.932Z,2.80
2023-03-05T06:22:39.205Z,2.80
2023-03-05T06:25:09.438Z,2.80
2023-03-05T06:27:38.606Z,2.90
2023-03-05T06:30:08.368Z,2.90
2023-03-05T06:32:36.695Z,2.90
2023-03-05T06:35:05.455Z,3.00
2023-03-05T06:37:34.796Z,3.00
2023-03-05T06:40:05.597Z,3.00
2023-03-05T06:42:34.741Z,3.00
2023-03-05T06:45:02.960Z,3.00
2023-03-05T06:47:31.423Z,3.00
2023-03-05T06:49:59.602Z,3.10
2023-03-05T06:52:27.777Z,3.10
2023-03-05T06:54:56.854Z,3.10
2023-03-05T06:57:26.544Z,3.10
2023-03-05T06:59:54.702Z,3.20
2023-03-05T07:02:23.003Z,3.30
2023-03-05T07:04:51.212Z,3.30
2023-03-05T07:07:19.467Z,3.40
2023-03-05T07:09:50.324Z,3.50
2023-03-05T07:12:18.525Z,3.60
2023-03-05T07:14:48.099Z,3.70
2023-03-05T07:17:16.392Z,3.70
2023-03-05T07:19:44.985Z,3.70
2023-03-05T07:22:13.219Z,3.80
2023-03-05T07:24:41.485Z,3.80
2023-03-05T07:27:09.644Z,3.80
2023-03-05T07:29:37.932Z,3.80
2023-03-05T07:32:08.034Z,3.80
2023-03-05T07:34:38.234Z,3.90
2023-03-05T07:37:06.849Z,4.00
2023-03-05T07:39:35.006Z,4.10
2023-03-05T07:42:03.235Z,4.20
2023-03-05T07:44:31.448Z,4.30
2023-03-05T07:46:59.632Z,4.50
2023-03-05T07:49:29.243Z,4.60
2023-03-05T07:51:57.438Z,4.80
2023-03-05T07:54:25.649Z,4.90
2023-03-05T07:56:56.050Z,5.00
2023-03-05T07:59:24.221Z,5.10
2023-03-05T08:01:52.447Z,5.20
2023-03-05T08:04:20.707Z,5.30
2023-03-05T08:06:50.456Z,5.40
2023-03-05T08:09:19.094Z,5.50
2023-03-05T08:11:47.489Z,5.60
2023-03-05T08:14:15.907Z,5.60
2023-03-05T08:16:45.719Z,5.70
2023-03-05T08:19:15.350Z,5.60
2023-03-05T08:21:43.566Z,5.70
2023-03-05T08:24:14.184Z,5.60
2023-03-05T08:26:42.876Z,5.70
2023-03-05T08:29:12.359Z,5.70
2023-03-05T08:31:45.922Z,5.80
2023-03-05T08:34:14.319Z,5.80
2023-03-05T08:36:42.500Z,5.80
2023-03-05T08:39:10.979Z,5.90
2023-03-05T08:41:40.750Z,6.10
2023-03-05T08:44:09.121Z,6.20
2023-03-05T08:46:39.750Z,6.40
2023-03-05T08:49:08.363Z,6.60
2023-03-05T08:51:37.061Z,6.90
2023-03-05T08:54:07.505Z,7.10
2023-03-05T08:56:35.876Z,7.30
2023-03-05T08:59:06.070Z,7.50
2023-03-05T09:01:34.484Z,7.70
2023-03-05T09:04:04.015Z,7.90
2023-03-05T09:06:32.216Z,8.10
2023-03-05T09:09:00.406Z,8.10
2023-03-05T09:11:28.840Z,8.20
2023-03-05T09:13:57.140Z,8.30
2023-03-05T09:16:26.822Z,8.20
2023-03-05T09:18:55.052Z,8.20
2023-03-05T09:21:23.343Z,8.20
2023-03-05T09:23:51.592Z,8.30
2023-03-05T09:26:20.649Z,8.30
2023-03-05T09:28:49.643Z,8.40
2023-03-05T09:31:18.601Z,8.40
2023-03-05T09:33:49.418Z,8.50
2023-03-05T09:36:20.780Z,8.40
2023-03-05T09:38:49.045Z,8.50
2023-03-05T09:41:23.126Z,8.70
2023-03-05T09:44:00.004Z,8.90
2023-03-05T09:46:39.222Z,9.00
2023-03-05T09:49:17.692Z,9.10
2023-03-05T09:51:47.696Z,9.40
2023-03-05T09:54:19.975Z,9.60
2023-03-05T09:56:52.357Z,9.70
2023-03-05T09:59:29.884Z,9.80
2023-03-05T10:02:02.556Z,10.10
2023-03-05T10:04:43.986Z,10.10
2023-03-05T10:07:18.450Z,10.20
2023-03-05T10:09:51.959Z,10.20
2023-03-05T10:12:28.836Z,10.30
2023-03-05T10:14:57.516Z,10.60
2023-03-05T10:17:55.218Z,10.80
2023-03-05T10:20:56.128Z,11.00
2023-03-05T10:23:31.797Z,11.30
2023-03-05T10:26:06.315Z,11.60
2023-03-05T10:28:44.392Z,11.70
2023-03-05T10:31:35.255Z,11.80
2023-03-05T10:34:25.622Z,11.80
2023-03-05T10:37:09.315Z,11.70
2023-03-05T10:40:09.902Z,11.80
2023-03-05T10:42:48.282Z,12.10
2023-03-05T10:45:19.718Z,12.40
2023-03-05T10:47:53.508Z,12.70
2023-03-05T10:50:24.954Z,12.90
2023-03-05T10:53:02.990Z,13.30
2023-03-05T10:55:31.257Z,13.50
2023-03-05T10:58:02.169Z,13.60
2023-03-05T11:00:32.307Z,13.70
2023-03-05T11:03:02.957Z,14.00
2023-03-05T11:05:52.997Z,14.50
2023-03-05T11:08:30.856Z,15.00
2023-03-05T11:11:11.936Z,14.80
2023-03-05T11:13:52.105Z,15.00
2023-03-05T11:16:22.152Z,14.80
2023-03-05T11:18:50.827Z,14.80
2023-03-05T11:21:27.770Z,14.80
2023-03-05T11:24:14.952Z,15.30
2023-03-05T11:26:51.300Z,15.70
2023-03-05T11:29:24.273Z,16.20
2023-03-05T11:31:53.291Z,16.70
2023-03-05T11:34:31.432Z,17.20
2023-03-05T11:37:06.327Z,17.60
2023-03-05T11:39:38.457Z,18.10
2023-03-05T11:42:11.756Z,18.80
2023-03-05T11:44:48.142Z,19.80
2023-03-05T11:47:25.713Z,20.70
2023-03-05T11:50:02.275Z,21.80
2023-03-05T11:52:33.437Z,21.50
2023-03-05T11:55:06.821Z,22.60
2023-03-05T11:57:42.708Z,23.40
2023-03-05T12:00:18.896Z,24.40
2023-03-05T12:02:57.896Z,25.30
2023-03-05T12:05:26.428Z,25.80
2023-03-05T12:07:58.108Z,26.00
2023-03-05T12:10:27.448Z,25.20
2023-03-05T12:13:02.464Z,25.50
2023-03-05T12:15:40.001Z,24.40
2023-03-05T12:18:17.868Z,24.40
2023-03-05T12:20:50.887Z,25.00
2023-03-05T12:23:21.713Z,24.80
2023-03-05T12:25:51.386Z,24.20
2023-03-05T12:28:57.627Z,24.50
2023-03-05T12:31:46.503Z,24.50
2023-03-05T12:34:37.034Z,24.40
2023-03-05T12:37:05.663Z,24.60
2023-03-05T12:39:50.888Z,25.00
2023-03-05T12:42:45.157Z,25.40
2023-03-05T12:45:30.356Z,25.70
2023-03-05T12:48:43.109Z,25.80
2023-03-05T12:51:34.916Z,26.00
2023-03-05T12:54:33.028Z,26.00
2023-03-05T12:57:02.568Z,26.20
2023-03-05T12:59:40.053Z,26.30
2023-03-05T13:02:28.302Z,25.80
2023-03-05T13:05:00.469Z,25.80
2023-03-05T13:07:28.638Z,26.00
2023-03-05T13:09:58.873Z,26.00
2023-03-05T13:12:29.928Z,26.20
2023-03-05T13:15:02.258Z,26.30
2023-03-05T13:17:39.331Z,26.00
2023-03-05T13:20:30.326Z,25.60
2023-03-05T13:23:23.384Z,25.20
2023-03-05T13:26:00.485Z,24.90
2023-03-05T13:28:29.677Z,25.00
2023-03-05T13:30:59.931Z,25.10
2023-03-05T13:33:31.597Z,25.50
2023-03-05T13:36:00.054Z,25.80
2023-03-05T13:38:33.581Z,26.00
2023-03-05T13:41:19.587Z,26.20
2023-03-05T13:43:49.813Z,26.20
2023-03-05T13:46:29.432Z,25.80
2023-03-05T13:49:18.365Z,25.70
2023-03-05T13:51:48.515Z,25.80
2023-03-05T13:54:18.241Z,25.70
2023-03-05T13:56:58.110Z,25.70
2023-03-05T13:59:29.590Z,25.80
2023-03-05T14:01:59.592Z,26.00
2023-03-05T14:04:31.212Z,26.00
2023-03-05T14:07:03.547Z,25.90
2023-03-05T14:09:43.885Z,25.80
2023-03-05T14:12:27.227Z,25.60
2023-03-05T14:14:55.935Z,24.80
2023-03-05T14:17:38.470Z,23.60
2023-03-05T14:20:23.112Z,22.30
2023-03-05T14:22:53.235Z,21.40
2023-03-05T14:25:33.726Z,20.60
2023-03-05T14:28:03.212Z,19.80
2023-03-05T14:30:31.974Z,19.20
2023-03-05T14:33:01.833Z,18.50
2023-03-05T14:35:32.015Z,18.10
2023-03-05T14:38:00.858Z,17.40
2023-03-05T14:40:32.195Z,17.00
2023-03-05T14:43:02.154Z,16.50
2023-03-05T14:45:33.502Z,16.20
2023-03-05T14:48:03.634Z,15.80
2023-03-05T14:50:35.883Z,15.60
2023-03-05T14:53:08.723Z,15.20
2023-03-05T14:55:38.504Z,14.90
2023-03-05T14:58:13.703Z,14.50
2023-03-05T15:00:42.369Z,14.10
2023-03-05T15:03:12.200Z,13.90
2023-03-05T15:05:42.668Z,13.60
2023-03-05T15:08:14.967Z,13.40
2023-03-05T15:10:43.360Z,13.20
2023-03-05T15:13:13.165Z,12.90
2023-03-05T15:15:42.435Z,12.70
2023-03-05T15:18:12.444Z,12.50
2023-03-05T15:20:42.094Z,12.20
2023-03-05T15:23:12.233Z,12.00
2023-03-05T15:25:41.235Z,11.80
2023-03-05T15:28:09.610Z,11.70
2023-03-05T15:30:40.619Z,11.70
2023-03-05T15:33:11.879Z,11.50
2023-03-05T15:35:42.224Z,11.40
2023-03-05T15:38:10.485Z,11.40
2023-03-05T15:40:38.688Z,11.40
2023-03-05T15:43:06.885Z,11.60
2023-03-05T15:45:35.101Z,11.90
2023-03-05T15:48:03.334Z,12.30
2023-03-05T15:50:31.577Z,12.60
2023-03-05T15:53:01.276Z,13.10
2023-03-05T15:55:29.573Z,13.50
2023-03-05T15:57:57.796Z,13.80
2023-03-05T16:00:30.724Z,13.90
2023-03-05T16:02:59.011Z,14.00
2023-03-05T16:05:27.723Z,14.10
2023-03-05T16:07:56.719Z,14.00
2023-03-05T16:10:27.976Z,13.90
2023-03-05T16:13:00.129Z,13.80
2023-03-05T16:15:28.472Z,13.60
2023-03-05T16:18:00.089Z,13.30
2023-03-05T16:20:28.049Z,13.10
2023-03-05T16:22:56.286Z,12.80
2023-03-05T16:25:26.809Z,12.60
2023-03-05T16:27:55.018Z,12.30
2023-03-05T16:30:23.355Z,11.90
2023-03-05T16:32:53.611Z,11.60
2023-03-05T16:35:22.349Z,11.30
2023-03-05T16:37:50.640Z,11.00
2023-03-05T16:40:19.232Z,10.70
2023-03-05T16:42:48.834Z,10.50
2023-03-05T16:45:17.007Z,10.20
2023-03-05T16:47:45.237Z,9.90
2023-03-05T16:50:14.288Z,9.50
2023-03-05T16:52:42.525Z,9.20
2023-03-05T16:55:11.220Z,9.00
2023-03-05T16:57:40.238Z,8.80
2023-03-05T17:00:11.905Z,8.60
2023-03-05T17:02:39.891Z,8.40
2023-03-05T17:05:08.521Z,8.10
2023-03-05T17:07:36.727Z,7.90
2023-03-05T17:10:05.241Z,7.80
2023-03-05T17:12:33.432Z,7.60
2023-03-05T17:15:01.677Z,7.50
2023-03-05T17:17:31.915Z,7.40
2023-03-05T17:20:00.360Z,7.30
2023-03-05T17:22:28.587Z,7.20
2023-03-05T17:24:56.810Z,7.10
2023-03-05T17:27:25.080Z,7.00
2023-03-05T17:29:53.280Z,6.80
2023-03-05T17:32:21.676Z,6.70
2023-03-05T17:34:54.933Z,6.50
2023-03-05T17:37:24.012Z,6.40
2023-03-05T17:39:52.263Z,6.30
2023-03-05T17:42:21.467Z,6.20
2023-03-05T17:44:51.028Z,6.10
2023-03-05T17:47:19.204Z,6.00
2023-03-05T17:49:47.435Z,5.90
2023-03-05T17:52:18.221Z,5.80
2023-03-05T17:54:46.550Z,5.80
2023-03-05T17:57:14.756Z,5.70
2023-03-05T17:59:44.671Z,5.60
2023-03-05T18:02:13.232Z,5.50
2023-03-05T18:04:42.385Z,5.50
2023-03-05T18:07:10.794Z,5.40
2023-03-05T18:09:40.451Z,5.20
2023-03-05T18:12:08.753Z,5.30
2023-03-05T18:14:37.032Z,5.20
2023-03-05T18:17:05.258Z,5.10
2023-03-05T18:19:33.449Z,5.00
2023-03-05T18:22:01.683Z,4.90
2023-03-05T18:24:29.848Z,4.80
2023-03-05T18:26:59.473Z,4.70
2023-03-05T18:29:27.894Z,4.60
2023-03-05T18:31:56.388Z,4.50
2023-03-05T18:34:25.712Z,4.40
2023-03-05T18:36:54.449Z,4.40
2023-03-05T18:39:22.681Z,4.30
2023-03-05T18:41:51.014Z,4.20
2023-03-05T18:44:20.829Z,4.20
2023-03-05T18:46:49.044Z,4.10
2023-03-05T18:49:17.349Z,4.10
2023-03-05T18:51:45.816Z,4.00
2023-03-05T18:54:14.035Z,3.90
2023-03-05T18:56:42.247Z,3.90
2023-03-05T18:59:10.393Z,3.70
2023-03-05T19:01:40.107Z,3.70
2023-03-05T19:04:08.423Z,3.70
2023-03-05T19:06:38.343Z,3.70
2023-03-05T19:09:17.005Z,3.70
2023-03-05T19:11:45.239Z,3.60
2023-03-05T19:14:13.503Z,3.60
2023-03-05T19:16:44.224Z,3.50
2023-03-05T19:19:16.425Z,3.50
2023-03-05T19:21:46.626Z,3.60
2023-03-05T19:24:15.701Z,3.60
2023-03-05T19:26:44.544Z,3.70
2023-03-05T19:29:13.377Z,3.60
2023-03-05T19:31:43.190Z,3.60
2023-03-05T19:34:11.600Z,3.50
2023-03-05T19:36:39.781Z,3.50
2023-03-05T19:39:08.985Z,3.50
2023-03-05T19:41:37.428Z,3.50
2023-03-05T19:44:06.481Z,3.40
2023-03-05T19:46:34.741Z,3.40
2023-03-05T19:49:04.872Z,3.20
2023-03-05T19:51:33.046Z,3.10
2023-03-05T19:54:01.213Z,3.10
2023-03-05T19:56:29.426Z,3.00
2023-03-05T19:58:57.580Z,3.10
2023-03-05T20:01:28.298Z,3.00
2023-03-05T20:03:58.810Z,2.90
2023-03-05T20:06:29.751Z,2.80
2023-03-05T20:08:59.264Z,2.70
2023-03-05T20:11:28.668Z,2.70
2023-03-05T20:13:57.925Z,2.70
2023-03-05T20:16:27.483Z,2.80
2023-03-05T20:18:56.144Z,2.80
2023-03-05T20:21:29.066Z,2.80
2023-03-05T20:23:59.325Z,2.80
2023-03-05T20:26:28.408Z,2.80
2023-03-05T20:28:58.117Z,2.80
2023-03-05T20:31:28.411Z,2.70
2023-03-05T20:33:57.254Z,2.70
2023-03-05T20:36:27.119Z,2.70
2023-03-05T20:38:55.905Z,2.60
2023-03-05T20:41:24.120Z,2.60
2023-03-05T20:43:53.138Z,2.50
2023-03-05T20:46:24.086Z,2.50
2023-03-05T20:48:53.832Z,2.50
2023-03-05T20:51:24.805Z,2.50
2023-03-05T20:53:58.020Z,2.50
2023-03-05T20:56:26.999Z,2.50
2023-03-05T20:58:55.578Z,2.50
2023-03-05T21:01:23.825Z,2.40
2023-03-05T21:03:53.716Z,2.40
2023-03-05T21:06:21.925Z,2.40
2023-03-05T21:08:50.456Z,2.40
2023-03-05T21:11:20.461Z,2.30
2023-03-05T21:13:48.862Z,2.30
2023-03-05T21:16:18.941Z,2.30
2023-03-05T21:18:47.196Z,2.10
2023-03-05T21:21:15.457Z,2.30
2023-03-05T21:23:43.677Z,2.10
2023-03-05T21:26:13.411Z,2.10
2023-03-05T21:28:43.844Z,2.10
2023-03-05T21:31:16.263Z,2.10
2023-03-05T21:33:44.512Z,2.00
2023-03-05T21:36:12.813Z,2.10
2023-03-05T21:38:41.040Z,1.90
2023-03-05T21:41:09.218Z,1.90
2023-03-05T21:43:37.436Z,1.80
2023-03-05T21:46:07.307Z,1.90
2023-03-05T21:48:35.736Z,1.90
2023-03-05T21:51:12.802Z,1.80
2023-03-05T21:53:41.006Z,1.80
2023-03-05T21:56:22.077Z,1.80
2023-03-05T21:58:50.935Z,1.90
2023-03-05T22:01:21.892Z,1.80
2023-03-05T22:03:50.842Z,1.90
2023-03-05T22:06:20.903Z,2.00
2023-03-05T22:08:49.247Z,2.00
2023-03-05T22:11:18.623Z,2.00
2023-03-05T22:13:46.885Z,2.10
2023-03-05T22:16:24.385Z,2.10
2023-03-05T22:18:53.622Z,2.10
2023-03-05T22:21:23.964Z,2.20
2023-03-05T22:23:53.436Z,2.20
2023-03-05T22:26:21.729Z,2.20
2023-03-05T22:28:49.924Z,2.30
2023-03-05T22:31:23.388Z,2.30
2023-03-05T22:33:51.887Z,2.30
2023-03-05T22:36:20.334Z,2.30
2023-03-05T22:38:48.641Z,2.40
2023-03-05T22:41:19.746Z,2.40
2023-03-05T22:43:48.895Z,2.40
2023-03-05T22:46:18.616Z,2.40
2023-03-05T22:48:48.560Z,2.40
2023-03-05T22:51:17.894Z,2.40
2023-03-05T22:53:46.891Z,2.40
2023-03-05T22:56:17.022Z,2.50
2023-03-05T22:58:45.723Z,2.50
2023-03-05T23:01:14.988Z,2.60
2023-03-05T23:03:44.395Z,2.60
2023-03-05T23:06:14.064Z,2.60
2023-03-05T23:08:42.277Z,2.60
2023-03-05T23:11:12.097Z,2.60
2023-03-05T23:13:41.085Z,2.70
2023-03-05T23:16:09.816Z,2.70
2023-03-05T23:18:38.223Z,2.70
2023-03-05T23:21:06.825Z,2.60
2023-03-05T23:23:36.483Z,2.70
2023-03-05T23:26:04.739Z,2.70
2023-03-05T23:28:32.922Z,2.70
2023-03-05T23:31:01.147Z,2.70
2023-03-05T23:33:29.412Z,2.70
2023-03-05T23:35:58.849Z,2.70
2023-03-05T23:38:28.382Z,2.80
2023-03-05T23:41:01.112Z,2.80
2023-03-05T23:43:30.761Z,2.80
2023-03-05T23:46:00.521Z,2.80
2023-03-05T23:48:29.725Z,2.80
2023-03-05T23:50:57.970Z,2.80
2023-03-05T23:53:27.722Z,2.80
2023-03-05T23:55:57.396Z,2.80
2023-03-05T23:58:25.948Z,2.80
